sensor_id;sensor_type;location;lat;lon;timestamp;P1;durP1;ratioP1;P2;durP2;ratioP2
1206;SDS011;593;53.184;8.216;2022-08-25T00:00:59;4.33;;;2.83;;
1206;SDS011;593;53.184;8.216;2022-08-25T00:03:25;3.90;;;2.47;;
1206;SDS011;593;53.184;8.216;2022-08-25T00:05:50;2.83;;;2.63;;
1206;SDS011;593;53.184;8.216;2022-08-25T00:08:15;3.00;;;2.80;;
1206;SDS011;593;53.184;8.216;2022-08-25T00:10:41;3.90;;;3.60;;
1206;SDS011;593;53.184;8.216;2022-08-25T00:13:07;2.40;;;2.20;;
1206;SDS011;593;53.184;8.216;2022-08-25T00:15:32;2.87;;;2.60;;
1206;SDS011;593;53.184;8.216;2022-08-25T00:17:59;2.73;;;2.53;;
1206;SDS011;593;53.184;8.216;2022-08-25T00:20:25;2.90;;;2.60;;
1206;SDS011;593;53.184;8.216;2022-08-25T00:22:52;4.20;;;2.77;;
1206;SDS011;593;53.184;8.216;2022-08-25T00:25:18;3.10;;;2.90;;
1206;SDS011;593;53.184;8.216;2022-08-25T00:27:43;2.80;;;2.60;;
1206;SDS011;593;53.184;8.216;2022-08-25T00:30:09;3.37;;;3.17;;
1206;SDS011;593;53.184;8.216;2022-08-25T00:32:35;4.20;;;3.00;;
1206;SDS011;593;53.184;8.216;2022-08-25T00:35:00;2.80;;;2.57;;
1206;SDS011;593;53.184;8.216;2022-08-25T00:37:26;3.83;;;2.70;;
1206;SDS011;593;53.184;8.216;2022-08-25T00:39:52;4.70;;;2.93;;
1206;SDS011;593;53.184;8.216;2022-08-25T00:42:19;3.17;;;2.97;;
1206;SDS011;593;53.184;8.216;2022-08-25T00:44:44;3.20;;;2.90;;
1206;SDS011;593;53.184;8.216;2022-08-25T00:47:11;3.50;;;3.27;;
1206;SDS011;593;53.184;8.216;2022-08-25T00:49:53;2.90;;;2.70;;
1206;SDS011;593;53.184;8.216;2022-08-25T00:52:24;3.20;;;3.00;;
1206;SDS011;593;53.184;8.216;2022-08-25T00:54:54;3.10;;;2.80;;
1206;SDS011;593;53.184;8.216;2022-08-25T00:57:27;3.50;;;3.20;;
1206;SDS011;593;53.184;8.216;2022-08-25T01:00:09;3.27;;;3.07;;
1206;SDS011;593;53.184;8.216;2022-08-25T01:02:38;3.73;;;2.87;;
1206;SDS011;593;53.184;8.216;2022-08-25T01:05:04;3.20;;;3.00;;
1206;SDS011;593;53.184;8.216;2022-08-25T01:07:30;3.33;;;3.00;;
1206;SDS011;593;53.184;8.216;2022-08-25T01:09:57;3.20;;;3.00;;
1206;SDS011;593;53.184;8.216;2022-08-25T01:12:24;3.13;;;2.93;;
1206;SDS011;593;53.184;8.216;2022-08-25T01:14:50;3.27;;;2.90;;
1206;SDS011;593;53.184;8.216;2022-08-25T01:17:15;3.40;;;3.10;;
1206;SDS011;593;53.184;8.216;2022-08-25T01:19:41;4.07;;;3.77;;
1206;SDS011;593;53.184;8.216;2022-08-25T01:22:06;3.30;;;3.00;;
1206;SDS011;593;53.184;8.216;2022-08-25T01:27:23;3.90;;;3.10;;
1206;SDS011;593;53.184;8.216;2022-08-25T01:29:49;4.20;;;3.30;;
1206;SDS011;593;53.184;8.216;2022-08-25T01:35:04;3.70;;;3.40;;
1206;SDS011;593;53.184;8.216;2022-08-25T01:37:32;3.67;;;3.33;;
1206;SDS011;593;53.184;8.216;2022-08-25T01:40:04;3.77;;;3.47;;
1206;SDS011;593;53.184;8.216;2022-08-25T01:45:33;2.93;;;2.73;;
1206;SDS011;593;53.184;8.216;2022-08-25T01:48:04;4.30;;;3.77;;
1206;SDS011;593;53.184;8.216;2022-08-25T01:50:43;4.73;;;3.50;;
1206;SDS011;593;53.184;8.216;2022-08-25T01:53:28;3.60;;;3.30;;
1206;SDS011;593;53.184;8.216;2022-08-25T01:55:55;5.30;;;3.13;;
1206;SDS011;593;53.184;8.216;2022-08-25T02:01:38;4.03;;;3.67;;
1206;SDS011;593;53.184;8.216;2022-08-25T02:04:03;4.00;;;3.60;;
1206;SDS011;593;53.184;8.216;2022-08-25T02:06:30;5.67;;;3.63;;
1206;SDS011;593;53.184;8.216;2022-08-25T02:08:58;3.83;;;3.30;;
1206;SDS011;593;53.184;8.216;2022-08-25T02:11:26;3.27;;;3.00;;
1206;SDS011;593;53.184;8.216;2022-08-25T02:13:52;3.97;;;3.67;;
1206;SDS011;593;53.184;8.216;2022-08-25T02:16:22;4.43;;;3.63;;
1206;SDS011;593;53.184;8.216;2022-08-25T02:18:52;4.77;;;3.40;;
1206;SDS011;593;53.184;8.216;2022-08-25T02:21:18;3.03;;;2.70;;
1206;SDS011;593;53.184;8.216;2022-08-25T02:23:43;3.20;;;3.00;;
1206;SDS011;593;53.184;8.216;2022-08-25T02:26:09;4.87;;;3.47;;
1206;SDS011;593;53.184;8.216;2022-08-25T02:28:35;7.60;;;3.93;;
1206;SDS011;593;53.184;8.216;2022-08-25T02:31:02;3.40;;;3.20;;
1206;SDS011;593;53.184;8.216;2022-08-25T02:33:28;4.07;;;3.50;;
1206;SDS011;593;53.184;8.216;2022-08-25T02:35:56;4.60;;;4.10;;
1206;SDS011;593;53.184;8.216;2022-08-25T02:38:22;7.87;;;3.40;;
1206;SDS011;593;53.184;8.216;2022-08-25T02:40:48;4.50;;;3.93;;
1206;SDS011;593;53.184;8.216;2022-08-25T02:43:14;4.60;;;4.10;;
1206;SDS011;593;53.184;8.216;2022-08-25T02:45:39;4.30;;;3.93;;
1206;SDS011;593;53.184;8.216;2022-08-25T02:48:05;3.73;;;3.50;;
1206;SDS011;593;53.184;8.216;2022-08-25T02:50:30;3.70;;;3.20;;
1206;SDS011;593;53.184;8.216;2022-08-25T02:52:57;4.53;;;4.13;;
1206;SDS011;593;53.184;8.216;2022-08-25T02:55:22;3.50;;;3.30;;
1206;SDS011;593;53.184;8.216;2022-08-25T02:57:47;4.03;;;3.70;;
1206;SDS011;593;53.184;8.216;2022-08-25T03:00:13;5.00;;;3.90;;
1206;SDS011;593;53.184;8.216;2022-08-25T03:02:40;5.20;;;3.60;;
1206;SDS011;593;53.184;8.216;2022-08-25T03:05:07;4.30;;;3.90;;
1206;SDS011;593;53.184;8.216;2022-08-25T03:07:34;7.17;;;4.27;;
1206;SDS011;593;53.184;8.216;2022-08-25T03:10:08;4.83;;;3.90;;
1206;SDS011;593;53.184;8.216;2022-08-25T03:12:36;4.40;;;3.67;;
1206;SDS011;593;53.184;8.216;2022-08-25T03:15:01;3.80;;;3.50;;
1206;SDS011;593;53.184;8.216;2022-08-25T03:17:27;9.07;;;4.07;;
1206;SDS011;593;53.184;8.216;2022-08-25T03:19:53;4.67;;;4.37;;
1206;SDS011;593;53.184;8.216;2022-08-25T03:22:18;5.80;;;4.63;;
1206;SDS011;593;53.184;8.216;2022-08-25T03:24:44;4.90;;;4.33;;
1206;SDS011;593;53.184;8.216;2022-08-25T03:27:09;4.87;;;4.37;;
1206;SDS011;593;53.184;8.216;2022-08-25T03:29:35;6.53;;;4.93;;
1206;SDS011;593;53.184;8.216;2022-08-25T03:32:00;4.57;;;4.20;;
1206;SDS011;593;53.184;8.216;2022-08-25T03:34:26;5.47;;;4.97;;
1206;SDS011;593;53.184;8.216;2022-08-25T03:36:53;5.10;;;4.70;;
1206;SDS011;593;53.184;8.216;2022-08-25T03:39:20;5.00;;;4.60;;
1206;SDS011;593;53.184;8.216;2022-08-25T03:41:47;5.47;;;4.70;;
1206;SDS011;593;53.184;8.216;2022-08-25T03:44:13;5.23;;;4.73;;
1206;SDS011;593;53.184;8.216;2022-08-25T03:46:41;5.27;;;4.60;;
1206;SDS011;593;53.184;8.216;2022-08-25T03:49:10;4.63;;;4.20;;
1206;SDS011;593;53.184;8.216;2022-08-25T03:51:39;5.30;;;4.80;;
1206;SDS011;593;53.184;8.216;2022-08-25T03:54:08;4.93;;;4.37;;
1206;SDS011;593;53.184;8.216;2022-08-25T03:56:34;5.17;;;4.67;;
1206;SDS011;593;53.184;8.216;2022-08-25T03:59:00;4.47;;;4.03;;
1206;SDS011;593;53.184;8.216;2022-08-25T04:01:25;4.93;;;4.17;;
1206;SDS011;593;53.184;8.216;2022-08-25T04:03:50;5.10;;;4.60;;
1206;SDS011;593;53.184;8.216;2022-08-25T04:06:16;5.00;;;4.47;;
1206;SDS011;593;53.184;8.216;2022-08-25T04:08:43;7.17;;;4.97;;
1206;SDS011;593;53.184;8.216;2022-08-25T04:11:13;5.20;;;4.80;;
1206;SDS011;593;53.184;8.216;2022-08-25T04:13:44;6.53;;;5.43;;
1206;SDS011;593;53.184;8.216;2022-08-25T04:16:15;6.20;;;5.30;;
1206;SDS011;593;53.184;8.216;2022-08-25T04:18:44;5.97;;;4.57;;
1206;SDS011;593;53.184;8.216;2022-08-25T04:21:10;5.27;;;4.77;;
1206;SDS011;593;53.184;8.216;2022-08-25T04:23:37;5.80;;;5.30;;
1206;SDS011;593;53.184;8.216;2022-08-25T04:26:10;5.47;;;5.00;;
1206;SDS011;593;53.184;8.216;2022-08-25T04:28:37;5.90;;;5.27;;
1206;SDS011;593;53.184;8.216;2022-08-25T04:31:07;6.53;;;5.23;;
1206;SDS011;593;53.184;8.216;2022-08-25T04:33:34;7.70;;;5.40;;
1206;SDS011;593;53.184;8.216;2022-08-25T04:36:00;7.00;;;5.80;;
1206;SDS011;593;53.184;8.216;2022-08-25T04:38:26;6.17;;;5.57;;
1206;SDS011;593;53.184;8.216;2022-08-25T04:41:10;12.40;;;5.10;;
1206;SDS011;593;53.184;8.216;2022-08-25T04:43:37;6.53;;;5.97;;
1206;SDS011;593;53.184;8.216;2022-08-25T04:46:07;8.10;;;6.07;;
1206;SDS011;593;53.184;8.216;2022-08-25T04:48:36;7.53;;;5.20;;
1206;SDS011;593;53.184;8.216;2022-08-25T04:51:14;5.87;;;5.23;;
1206;SDS011;593;53.184;8.216;2022-08-25T04:53:41;6.50;;;5.90;;
1206;SDS011;593;53.184;8.216;2022-08-25T04:56:08;7.10;;;6.53;;
1206;SDS011;593;53.184;8.216;2022-08-25T04:58:36;7.47;;;5.60;;
1206;SDS011;593;53.184;8.216;2022-08-25T05:01:04;6.33;;;5.73;;
1206;SDS011;593;53.184;8.216;2022-08-25T05:03:34;7.07;;;6.33;;
1206;SDS011;593;53.184;8.216;2022-08-25T05:06:01;12.47;;;6.23;;
1206;SDS011;593;53.184;8.216;2022-08-25T05:08:26;10.17;;;6.53;;
1206;SDS011;593;53.184;8.216;2022-08-25T05:10:52;7.13;;;6.43;;
1206;SDS011;593;53.184;8.216;2022-08-25T05:13:20;8.43;;;6.53;;
1206;SDS011;593;53.184;8.216;2022-08-25T05:15:50;7.10;;;6.10;;
1206;SDS011;593;53.184;8.216;2022-08-25T05:18:23;7.63;;;7.00;;
1206;SDS011;593;53.184;8.216;2022-08-25T05:20:51;8.10;;;6.80;;
1206;SDS011;593;53.184;8.216;2022-08-25T05:23:18;7.77;;;6.97;;
1206;SDS011;593;53.184;8.216;2022-08-25T05:25:45;16.20;;;7.30;;
1206;SDS011;593;53.184;8.216;2022-08-25T05:28:11;8.07;;;6.27;;
1206;SDS011;593;53.184;8.216;2022-08-25T05:30:37;8.00;;;7.20;;
1206;SDS011;593;53.184;8.216;2022-08-25T05:33:04;7.47;;;6.43;;
1206;SDS011;593;53.184;8.216;2022-08-25T05:35:30;7.53;;;6.80;;
1206;SDS011;593;53.184;8.216;2022-08-25T05:37:56;7.37;;;6.63;;
1206;SDS011;593;53.184;8.216;2022-08-25T05:40:21;7.70;;;7.00;;
1206;SDS011;593;53.184;8.216;2022-08-25T05:42:48;8.33;;;7.60;;
1206;SDS011;593;53.184;8.216;2022-08-25T05:45:14;8.00;;;7.20;;
1206;SDS011;593;53.184;8.216;2022-08-25T05:47:39;8.70;;;7.43;;
1206;SDS011;593;53.184;8.216;2022-08-25T05:50:05;8.13;;;7.43;;
1206;SDS011;593;53.184;8.216;2022-08-25T05:52:31;13.83;;;8.60;;
1206;SDS011;593;53.184;8.216;2022-08-25T05:54:57;10.67;;;7.73;;
1206;SDS011;593;53.184;8.216;2022-08-25T05:57:22;9.03;;;8.07;;
1206;SDS011;593;53.184;8.216;2022-08-25T05:59:47;8.83;;;7.93;;
1206;SDS011;593;53.184;8.216;2022-08-25T06:02:13;9.80;;;8.93;;
1206;SDS011;593;53.184;8.216;2022-08-25T06:04:57;8.80;;;7.90;;
1206;SDS011;593;53.184;8.216;2022-08-25T06:07:22;8.83;;;8.13;;
1206;SDS011;593;53.184;8.216;2022-08-25T06:09:48;9.23;;;8.33;;
1206;SDS011;593;53.184;8.216;2022-08-25T06:12:14;9.33;;;8.43;;
1206;SDS011;593;53.184;8.216;2022-08-25T06:14:40;10.13;;;9.07;;
1206;SDS011;593;53.184;8.216;2022-08-25T06:17:06;9.43;;;8.30;;
1206;SDS011;593;53.184;8.216;2022-08-25T06:19:31;10.20;;;9.17;;
1206;SDS011;593;53.184;8.216;2022-08-25T06:21:57;10.33;;;9.30;;
1206;SDS011;593;53.184;8.216;2022-08-25T06:24:26;9.93;;;8.93;;
1206;SDS011;593;53.184;8.216;2022-08-25T06:26:53;9.60;;;8.60;;
1206;SDS011;593;53.184;8.216;2022-08-25T06:29:19;10.60;;;9.53;;
1206;SDS011;593;53.184;8.216;2022-08-25T06:31:44;9.27;;;8.37;;
1206;SDS011;593;53.184;8.216;2022-08-25T06:34:11;10.40;;;9.40;;
1206;SDS011;593;53.184;8.216;2022-08-25T06:36:37;11.27;;;10.13;;
1206;SDS011;593;53.184;8.216;2022-08-25T06:39:03;13.90;;;10.80;;
1206;SDS011;593;53.184;8.216;2022-08-25T06:41:29;10.07;;;9.03;;
1206;SDS011;593;53.184;8.216;2022-08-25T06:43:54;11.10;;;10.10;;
1206;SDS011;593;53.184;8.216;2022-08-25T06:46:21;12.80;;;9.50;;
1206;SDS011;593;53.184;8.216;2022-08-25T06:48:48;12.60;;;9.70;;
1206;SDS011;593;53.184;8.216;2022-08-25T06:51:14;11.80;;;10.03;;
1206;SDS011;593;53.184;8.216;2022-08-25T06:53:42;10.23;;;9.20;;
1206;SDS011;593;53.184;8.216;2022-08-25T06:56:08;9.87;;;8.83;;
1206;SDS011;593;53.184;8.216;2022-08-25T06:58:34;9.47;;;8.57;;
1206;SDS011;593;53.184;8.216;2022-08-25T07:01:19;12.53;;;10.93;;
1206;SDS011;593;53.184;8.216;2022-08-25T07:03:47;11.73;;;9.70;;
1206;SDS011;593;53.184;8.216;2022-08-25T07:06:14;10.30;;;9.40;;
1206;SDS011;593;53.184;8.216;2022-08-25T07:08:40;11.07;;;9.33;;
1206;SDS011;593;53.184;8.216;2022-08-25T07:11:06;10.43;;;9.43;;
1206;SDS011;593;53.184;8.216;2022-08-25T07:13:33;10.53;;;8.80;;
1206;SDS011;593;53.184;8.216;2022-08-25T07:15:59;10.73;;;9.63;;
1206;SDS011;593;53.184;8.216;2022-08-25T07:18:25;9.70;;;8.80;;
1206;SDS011;593;53.184;8.216;2022-08-25T07:20:51;10.70;;;9.60;;
1206;SDS011;593;53.184;8.216;2022-08-25T07:23:18;11.30;;;8.63;;
1206;SDS011;593;53.184;8.216;2022-08-25T07:25:45;9.77;;;8.77;;
1206;SDS011;593;53.184;8.216;2022-08-25T07:28:11;9.13;;;8.40;;
1206;SDS011;593;53.184;8.216;2022-08-25T07:30:37;9.70;;;8.80;;
1206;SDS011;593;53.184;8.216;2022-08-25T07:33:02;10.27;;;9.37;;
1206;SDS011;593;53.184;8.216;2022-08-25T07:35:28;10.20;;;9.30;;
1206;SDS011;593;53.184;8.216;2022-08-25T07:37:56;11.97;;;10.43;;
1206;SDS011;593;53.184;8.216;2022-08-25T07:40:27;10.30;;;9.30;;
1206;SDS011;593;53.184;8.216;2022-08-25T07:42:57;11.90;;;10.80;;
1206;SDS011;593;53.184;8.216;2022-08-25T07:45:29;10.50;;;9.43;;
1206;SDS011;593;53.184;8.216;2022-08-25T07:47:57;11.57;;;10.47;;
1206;SDS011;593;53.184;8.216;2022-08-25T07:50:32;11.47;;;9.70;;
1206;SDS011;593;53.184;8.216;2022-08-25T07:52:58;10.60;;;9.50;;
1206;SDS011;593;53.184;8.216;2022-08-25T07:55:24;12.00;;;10.80;;
1206;SDS011;593;53.184;8.216;2022-08-25T07:57:51;10.47;;;9.57;;
1206;SDS011;593;53.184;8.216;2022-08-25T08:00:17;11.47;;;10.47;;
1206;SDS011;593;53.184;8.216;2022-08-25T08:02:43;61.30;;;16.83;;
1206;SDS011;593;53.184;8.216;2022-08-25T08:05:09;19.60;;;11.27;;
1206;SDS011;593;53.184;8.216;2022-08-25T08:07:36;11.17;;;9.30;;
1206;SDS011;593;53.184;8.216;2022-08-25T08:10:02;11.10;;;10.00;;
1206;SDS011;593;53.184;8.216;2022-08-25T08:12:29;13.50;;;10.33;;
1206;SDS011;593;53.184;8.216;2022-08-25T08:14:54;12.57;;;11.30;;
1206;SDS011;593;53.184;8.216;2022-08-25T08:17:19;10.87;;;9.97;;
1206;SDS011;593;53.184;8.216;2022-08-25T08:19:45;12.73;;;10.30;;
1206;SDS011;593;53.184;8.216;2022-08-25T08:22:12;9.83;;;8.87;;
1206;SDS011;593;53.184;8.216;2022-08-25T08:24:41;9.80;;;8.90;;
1206;SDS011;593;53.184;8.216;2022-08-25T08:27:08;9.63;;;8.73;;
1206;SDS011;593;53.184;8.216;2022-08-25T08:29:35;10.10;;;9.10;;
1206;SDS011;593;53.184;8.216;2022-08-25T08:32:02;10.33;;;9.20;;
1206;SDS011;593;53.184;8.216;2022-08-25T08:34:29;9.13;;;8.33;;
1206;SDS011;593;53.184;8.216;2022-08-25T08:36:54;13.43;;;9.20;;
1206;SDS011;593;53.184;8.216;2022-08-25T08:39:21;9.50;;;8.50;;
1206;SDS011;593;53.184;8.216;2022-08-25T08:47:10;9.60;;;8.60;;
1206;SDS011;593;53.184;8.216;2022-08-25T08:57:46;10.37;;;9.47;;
1206;SDS011;593;53.184;8.216;2022-08-25T09:00:14;9.03;;;8.23;;
1206;SDS011;593;53.184;8.216;2022-08-25T09:05:28;10.63;;;8.50;;
1206;SDS011;593;53.184;8.216;2022-08-25T09:08:05;8.13;;;7.43;;
1206;SDS011;593;53.184;8.216;2022-08-25T09:10:40;9.03;;;8.33;;
1206;SDS011;593;53.184;8.216;2022-08-25T09:13:19;8.97;;;8.27;;
1206;SDS011;593;53.184;8.216;2022-08-25T09:21:53;8.63;;;7.87;;
1206;SDS011;593;53.184;8.216;2022-08-25T09:24:34;8.10;;;7.40;;
1206;SDS011;593;53.184;8.216;2022-08-25T09:27:17;11.50;;;7.63;;
1206;SDS011;593;53.184;8.216;2022-08-25T09:29:56;10.70;;;7.60;;
1206;SDS011;593;53.184;8.216;2022-08-25T09:32:29;7.70;;;6.97;;
1206;SDS011;593;53.184;8.216;2022-08-25T09:38:04;8.30;;;7.30;;
1206;SDS011;593;53.184;8.216;2022-08-25T09:40:34;9.00;;;8.20;;
1206;SDS011;593;53.184;8.216;2022-08-25T09:43:03;8.77;;;8.07;;
1206;SDS011;593;53.184;8.216;2022-08-25T09:45:43;9.73;;;8.83;;
1206;SDS011;593;53.184;8.216;2022-08-25T09:54:25;8.47;;;7.47;;
1206;SDS011;593;53.184;8.216;2022-08-25T09:59:23;9.43;;;8.63;;
1206;SDS011;593;53.184;8.216;2022-08-25T10:01:56;7.50;;;6.80;;
1206;SDS011;593;53.184;8.216;2022-08-25T10:04:33;9.20;;;8.40;;
1206;SDS011;593;53.184;8.216;2022-08-25T10:07:05;8.87;;;8.07;;
1206;SDS011;593;53.184;8.216;2022-08-25T10:09:51;7.53;;;6.87;;
1206;SDS011;593;53.184;8.216;2022-08-25T10:12:38;9.13;;;8.27;;
1206;SDS011;593;53.184;8.216;2022-08-25T10:15:19;8.20;;;7.60;;
1206;SDS011;593;53.184;8.216;2022-08-25T10:17:45;11.13;;;8.13;;
1206;SDS011;593;53.184;8.216;2022-08-25T10:20:18;7.40;;;6.80;;
1206;SDS011;593;53.184;8.216;2022-08-25T10:22:46;7.37;;;6.67;;
1206;SDS011;593;53.184;8.216;2022-08-25T10:25:13;8.00;;;7.40;;
1206;SDS011;593;53.184;8.216;2022-08-25T10:28:13;7.50;;;7.00;;
1206;SDS011;593;53.184;8.216;2022-08-25T10:36:22;7.73;;;7.23;;
1206;SDS011;593;53.184;8.216;2022-08-25T10:38:59;9.03;;;7.90;;
1206;SDS011;593;53.184;8.216;2022-08-25T10:44:18;8.13;;;7.43;;
1206;SDS011;593;53.184;8.216;2022-08-25T10:52:42;7.43;;;6.73;;
1206;SDS011;593;53.184;8.216;2022-08-25T10:55:26;7.67;;;6.97;;
1206;SDS011;593;53.184;8.216;2022-08-25T10:58:14;7.20;;;6.47;;
1206;SDS011;593;53.184;8.216;2022-08-25T11:01:11;7.07;;;6.57;;
1206;SDS011;593;53.184;8.216;2022-08-25T11:03:57;6.80;;;6.30;;
1206;SDS011;593;53.184;8.216;2022-08-25T11:06:37;6.27;;;5.87;;
1206;SDS011;593;53.184;8.216;2022-08-25T11:09:11;6.70;;;6.20;;
1206;SDS011;593;53.184;8.216;2022-08-25T11:11:45;7.43;;;6.73;;
1206;SDS011;593;53.184;8.216;2022-08-25T11:19:49;7.17;;;6.47;;
1206;SDS011;593;53.184;8.216;2022-08-25T11:25:18;6.10;;;5.70;;
1206;SDS011;593;53.184;8.216;2022-08-25T11:30:24;7.30;;;6.50;;
1206;SDS011;593;53.184;8.216;2022-08-25T11:32:50;5.50;;;5.20;;
1206;SDS011;593;53.184;8.216;2022-08-25T11:35:19;6.40;;;5.90;;
1206;SDS011;593;53.184;8.216;2022-08-25T11:37:57;6.10;;;5.50;;
1206;SDS011;593;53.184;8.216;2022-08-25T11:53:39;6.90;;;6.40;;
1206;SDS011;593;53.184;8.216;2022-08-25T11:56:10;6.50;;;5.57;;
1206;SDS011;593;53.184;8.216;2022-08-25T11:58:54;5.50;;;5.10;;
1206;SDS011;593;53.184;8.216;2022-08-25T12:04:10;8.80;;;6.90;;
1206;SDS011;593;53.184;8.216;2022-08-25T12:12:35;6.53;;;6.07;;
1206;SDS011;593;53.184;8.216;2022-08-25T12:26:06;6.20;;;5.77;;
1206;SDS011;593;53.184;8.216;2022-08-25T12:31:24;11.30;;;5.50;;
1206;SDS011;593;53.184;8.216;2022-08-25T12:36:57;5.70;;;5.30;;
1206;SDS011;593;53.184;8.216;2022-08-25T12:39:30;5.97;;;5.47;;
1206;SDS011;593;53.184;8.216;2022-08-25T12:42:03;6.07;;;5.60;;
1206;SDS011;593;53.184;8.216;2022-08-25T12:47:10;5.50;;;5.10;;
1206;SDS011;593;53.184;8.216;2022-08-25T12:49:37;5.80;;;5.40;;
1206;SDS011;593;53.184;8.216;2022-08-25T13:00:23;4.87;;;4.37;;
1206;SDS011;593;53.184;8.216;2022-08-25T13:03:03;5.37;;;4.87;;
1206;SDS011;593;53.184;8.216;2022-08-25T13:05:58;5.37;;;4.97;;
1206;SDS011;593;53.184;8.216;2022-08-25T13:08:47;5.77;;;5.30;;
1206;SDS011;593;53.184;8.216;2022-08-25T13:14:37;4.83;;;4.53;;
1206;SDS011;593;53.184;8.216;2022-08-25T13:17:05;7.10;;;5.00;;
1206;SDS011;593;53.184;8.216;2022-08-25T13:19:32;6.10;;;5.03;;
1206;SDS011;593;53.184;8.216;2022-08-25T13:22:00;5.10;;;4.70;;
1206;SDS011;593;53.184;8.216;2022-08-25T13:24:39;6.00;;;5.40;;
1206;SDS011;593;53.184;8.216;2022-08-25T13:27:08;5.23;;;4.77;;
1206;SDS011;593;53.184;8.216;2022-08-25T13:29:52;5.90;;;5.40;;
1206;SDS011;593;53.184;8.216;2022-08-25T13:32:31;6.20;;;5.70;;
1206;SDS011;593;53.184;8.216;2022-08-25T13:35:19;5.43;;;5.13;;
1206;SDS011;593;53.184;8.216;2022-08-25T13:38:15;6.30;;;5.80;;
1206;SDS011;593;53.184;8.216;2022-08-25T13:40:42;5.10;;;4.70;;
1206;SDS011;593;53.184;8.216;2022-08-25T13:43:09;5.93;;;5.50;;
1206;SDS011;593;53.184;8.216;2022-08-25T13:45:38;6.50;;;5.00;;
1206;SDS011;593;53.184;8.216;2022-08-25T13:48:09;6.60;;;6.10;;
1206;SDS011;593;53.184;8.216;2022-08-25T13:50:38;5.70;;;5.20;;
1206;SDS011;593;53.184;8.216;2022-08-25T13:55:50;5.40;;;4.97;;
1206;SDS011;593;53.184;8.216;2022-08-25T13:58:23;6.30;;;5.73;;
1206;SDS011;593;53.184;8.216;2022-08-25T14:03:40;5.40;;;5.00;;
1206;SDS011;593;53.184;8.216;2022-08-25T14:06:18;4.77;;;4.47;;
1206;SDS011;593;53.184;8.216;2022-08-25T14:09:03;5.67;;;5.20;;
1206;SDS011;593;53.184;8.216;2022-08-25T14:11:47;5.50;;;5.10;;
1206;SDS011;593;53.184;8.216;2022-08-25T14:19:25;5.90;;;5.40;;
1206;SDS011;593;53.184;8.216;2022-08-25T14:21:52;7.50;;;5.60;;
1206;SDS011;593;53.184;8.216;2022-08-25T14:24:31;5.00;;;4.60;;
1206;SDS011;593;53.184;8.216;2022-08-25T14:27:01;5.80;;;5.30;;
1206;SDS011;593;53.184;8.216;2022-08-25T14:29:32;6.77;;;6.17;;
1206;SDS011;593;53.184;8.216;2022-08-25T14:31:57;5.77;;;5.20;;
1206;SDS011;593;53.184;8.216;2022-08-25T14:34:25;6.13;;;5.63;;
1206;SDS011;593;53.184;8.216;2022-08-25T14:36:53;5.93;;;5.23;;
1206;SDS011;593;53.184;8.216;2022-08-25T14:39:19;5.87;;;5.30;;
1206;SDS011;593;53.184;8.216;2022-08-25T14:41:44;5.33;;;5.03;;
1206;SDS011;593;53.184;8.216;2022-08-25T14:44:10;5.47;;;5.07;;
1206;SDS011;593;53.184;8.216;2022-08-25T14:46:37;6.03;;;5.50;;
1206;SDS011;593;53.184;8.216;2022-08-25T14:49:08;6.40;;;5.80;;
1206;SDS011;593;53.184;8.216;2022-08-25T14:51:46;5.37;;;4.90;;
1206;SDS011;593;53.184;8.216;2022-08-25T14:54:35;5.63;;;4.90;;
1206;SDS011;593;53.184;8.216;2022-08-25T14:57:03;5.83;;;5.33;;
1206;SDS011;593;53.184;8.216;2022-08-25T14:59:30;6.77;;;6.07;;
1206;SDS011;593;53.184;8.216;2022-08-25T15:01:56;5.47;;;4.93;;
1206;SDS011;593;53.184;8.216;2022-08-25T15:04:24;5.37;;;4.97;;
1206;SDS011;593;53.184;8.216;2022-08-25T15:06:57;5.90;;;5.50;;
1206;SDS011;593;53.184;8.216;2022-08-25T15:09:27;4.93;;;4.63;;
1206;SDS011;593;53.184;8.216;2022-08-25T15:11:56;5.87;;;5.40;;
1206;SDS011;593;53.184;8.216;2022-08-25T15:14:26;5.30;;;4.90;;
1206;SDS011;593;53.184;8.216;2022-08-25T15:16:53;7.00;;;5.37;;
1206;SDS011;593;53.184;8.216;2022-08-25T15:19:22;6.50;;;5.90;;
1206;SDS011;593;53.184;8.216;2022-08-25T15:21:51;5.97;;;5.57;;
1206;SDS011;593;53.184;8.216;2022-08-25T15:24:17;5.57;;;5.17;;
1206;SDS011;593;53.184;8.216;2022-08-25T15:26:48;9.03;;;5.90;;
1206;SDS011;593;53.184;8.216;2022-08-25T15:29:17;9.23;;;6.10;;
1206;SDS011;593;53.184;8.216;2022-08-25T15:31:43;6.30;;;5.80;;
1206;SDS011;593;53.184;8.216;2022-08-25T15:34:08;6.07;;;5.17;;
1206;SDS011;593;53.184;8.216;2022-08-25T15:36:34;5.10;;;4.70;;
1206;SDS011;593;53.184;8.216;2022-08-25T15:39:00;5.17;;;4.87;;
1206;SDS011;593;53.184;8.216;2022-08-25T15:41:27;6.43;;;5.83;;
1206;SDS011;593;53.184;8.216;2022-08-25T15:43:53;5.63;;;5.23;;
1206;SDS011;593;53.184;8.216;2022-08-25T15:46:19;5.93;;;4.73;;
1206;SDS011;593;53.184;8.216;2022-08-25T15:48:47;5.40;;;5.00;;
1206;SDS011;593;53.184;8.216;2022-08-25T15:51:13;5.97;;;5.67;;
1206;SDS011;593;53.184;8.216;2022-08-25T15:53:42;6.00;;;5.50;;
1206;SDS011;593;53.184;8.216;2022-08-25T15:56:12;5.30;;;4.90;;
1206;SDS011;593;53.184;8.216;2022-08-25T15:58:41;5.43;;;4.93;;
1206;SDS011;593;53.184;8.216;2022-08-25T16:01:10;5.67;;;5.37;;
1206;SDS011;593;53.184;8.216;2022-08-25T16:03:37;6.03;;;5.53;;
1206;SDS011;593;53.184;8.216;2022-08-25T16:06:02;5.20;;;4.70;;
1206;SDS011;593;53.184;8.216;2022-08-25T16:08:29;6.03;;;5.53;;
1206;SDS011;593;53.184;8.216;2022-08-25T16:10:54;6.33;;;5.83;;
1206;SDS011;593;53.184;8.216;2022-08-25T16:13:19;5.87;;;5.33;;
1206;SDS011;593;53.184;8.216;2022-08-25T16:15:47;6.50;;;5.90;;
1206;SDS011;593;53.184;8.216;2022-08-25T16:18:13;5.40;;;4.90;;
1206;SDS011;593;53.184;8.216;2022-08-25T16:20:41;5.40;;;5.00;;
1206;SDS011;593;53.184;8.216;2022-08-25T16:23:11;6.13;;;5.63;;
1206;SDS011;593;53.184;8.216;2022-08-25T16:25:41;6.23;;;5.60;;
1206;SDS011;593;53.184;8.216;2022-08-25T16:28:10;6.20;;;5.60;;
1206;SDS011;593;53.184;8.216;2022-08-25T16:30:43;6.13;;;5.73;;
1206;SDS011;593;53.184;8.216;2022-08-25T16:33:11;6.03;;;5.50;;
1206;SDS011;593;53.184;8.216;2022-08-25T16:35:36;5.30;;;4.90;;
1206;SDS011;593;53.184;8.216;2022-08-25T16:38:01;9.17;;;5.77;;
1206;SDS011;593;53.184;8.216;2022-08-25T16:40:28;5.97;;;5.57;;
1206;SDS011;593;53.184;8.216;2022-08-25T16:42:55;6.27;;;5.87;;
1206;SDS011;593;53.184;8.216;2022-08-25T16:45:20;6.70;;;6.10;;
1206;SDS011;593;53.184;8.216;2022-08-25T16:47:47;5.63;;;5.23;;
1206;SDS011;593;53.184;8.216;2022-08-25T16:50:13;5.70;;;5.30;;
1206;SDS011;593;53.184;8.216;2022-08-25T16:52:39;5.70;;;5.30;;
1206;SDS011;593;53.184;8.216;2022-08-25T16:55:24;6.30;;;5.90;;
1206;SDS011;593;53.184;8.216;2022-08-25T16:57:50;6.00;;;5.00;;
1206;SDS011;593;53.184;8.216;2022-08-25T17:00:22;5.50;;;5.20;;
1206;SDS011;593;53.184;8.216;2022-08-25T17:02:53;5.53;;;5.03;;
1206;SDS011;593;53.184;8.216;2022-08-25T17:05:26;6.00;;;5.60;;
1206;SDS011;593;53.184;8.216;2022-08-25T17:07:55;5.70;;;5.33;;
1206;SDS011;593;53.184;8.216;2022-08-25T17:10:44;6.17;;;5.57;;
1206;SDS011;593;53.184;8.216;2022-08-25T17:13:11;6.10;;;5.60;;
1206;SDS011;593;53.184;8.216;2022-08-25T17:15:38;6.07;;;5.50;;
1206;SDS011;593;53.184;8.216;2022-08-25T17:18:10;6.60;;;6.10;;
1206;SDS011;593;53.184;8.216;2022-08-25T17:20:35;6.63;;;6.07;;
1206;SDS011;593;53.184;8.216;2022-08-25T17:23:02;6.63;;;6.10;;
1206;SDS011;593;53.184;8.216;2022-08-25T17:25:29;6.00;;;5.40;;
1206;SDS011;593;53.184;8.216;2022-08-25T17:27:58;5.87;;;5.50;;
1206;SDS011;593;53.184;8.216;2022-08-25T17:30:24;5.90;;;5.40;;
1206;SDS011;593;53.184;8.216;2022-08-25T17:32:49;5.83;;;5.40;;
1206;SDS011;593;53.184;8.216;2022-08-25T17:35:14;5.87;;;5.37;;
1206;SDS011;593;53.184;8.216;2022-08-25T17:37:40;6.50;;;6.00;;
1206;SDS011;593;53.184;8.216;2022-08-25T17:40:05;6.50;;;5.90;;
1206;SDS011;593;53.184;8.216;2022-08-25T17:42:32;6.97;;;6.40;;
1206;SDS011;593;53.184;8.216;2022-08-25T17:44:58;6.30;;;5.70;;
1206;SDS011;593;53.184;8.216;2022-08-25T17:47:23;5.70;;;5.20;;
1206;SDS011;593;53.184;8.216;2022-08-25T17:49:48;6.57;;;6.00;;
1206;SDS011;593;53.184;8.216;2022-08-25T17:52:17;7.30;;;6.07;;
1206;SDS011;593;53.184;8.216;2022-08-25T17:54:42;6.87;;;6.27;;